createdAt,value
2024-02-29T00:00:31.764Z,1010.61
2024-02-29T00:01:31.775Z,1010.57
2024-02-29T00:02:31.659Z,1010.57
2024-02-29T00:03:31.663Z,1010.54
2024-02-29T00:04:31.602Z,1010.55
2024-02-29T00:07:31.577Z,1010.55
2024-02-29T00:08:31.565Z,1010.54
2024-02-29T00:09:31.567Z,1010.49
2024-02-29T00:10:31.537Z,1010.53
2024-02-29T00:11:31.575Z,1010.49
2024-02-29T00:12:31.520Z,1010.45
2024-02-29T00:13:31.515Z,1010.43
2024-02-29T00:14:31.492Z,1010.46
2024-02-29T00:15:31.538Z,1010.48
2024-02-29T00:16:31.473Z,1010.44
2024-02-29T00:17:31.493Z,1010.46
2024-02-29T00:18:31.502Z,1010.43
2024-02-29T00:19:31.442Z,1010.46
2024-02-29T00:20:31.435Z,1010.40
2024-02-29T00:21:31.443Z,1010.39
2024-02-29T00:22:31.408Z,1010.37
2024-02-29T00:23:31.418Z,1010.42
2024-02-29T00:24:30.441Z,1010.38
2024-02-29T00:25:30.299Z,1010.38
2024-02-29T00:26:31.364Z,1010.39
2024-02-29T00:27:31.363Z,1010.40
2024-02-29T00:28:31.356Z,1010.41
2024-02-29T00:29:31.332Z,1010.38
2024-02-29T00:35:31.266Z,1010.40
2024-02-29T00:36:31.312Z,1010.40
2024-02-29T00:37:31.244Z,1010.37
2024-02-29T00:38:31.240Z,1010.40
2024-02-29T00:39:31.239Z,1010.42
2024-02-29T00:40:31.220Z,1010.48
2024-02-29T00:41:31.199Z,1010.45
2024-02-29T00:42:31.212Z,1010.47
2024-02-29T00:43:31.186Z,1010.50
2024-02-29T00:44:31.175Z,1010.42
2024-02-29T00:45:31.199Z,1010.46
2024-02-29T00:46:31.150Z,1010.46
2024-02-29T00:49:31.121Z,1010.41
2024-02-29T00:50:31.124Z,1010.45
2024-02-29T00:51:31.150Z,1010.41
2024-02-29T00:52:31.082Z,1010.30
2024-02-29T00:53:31.080Z,1010.37
2024-02-29T00:54:31.106Z,1010.37
2024-02-29T00:55:31.058Z,1010.42
2024-02-29T00:56:31.039Z,1010.41
2024-02-29T00:57:31.047Z,1010.43
2024-02-29T00:58:31.019Z,1010.41
2024-02-29T00:59:31.027Z,1010.38
2024-02-29T01:00:31.099Z,1010.44
2024-02-29T01:03:32.688Z,1010.42
2024-02-29T01:04:30.969Z,1010.41
2024-02-29T01:05:30.943Z,1010.41
2024-02-29T01:06:30.969Z,1010.39
2024-02-29T01:07:30.932Z,1010.37
2024-02-29T01:08:30.928Z,1010.33
2024-02-29T01:09:30.995Z,1010.36
2024-02-29T01:10:30.901Z,1010.36
2024-02-29T01:11:30.893Z,1010.33
2024-02-29T01:12:30.929Z,1010.33
2024-02-29T01:15:30.865Z,1010.25
2024-02-29T01:16:30.826Z,1010.27
2024-02-29T01:17:30.853Z,1010.27
2024-02-29T01:18:30.864Z,1010.27
2024-02-29T01:19:30.803Z,1010.26
2024-02-29T01:20:30.790Z,1010.26
2024-02-29T01:21:30.805Z,1010.23
2024-02-29T01:22:30.774Z,1010.25
2024-02-29T01:23:30.767Z,1010.25
2024-02-29T01:24:30.807Z,1010.20
2024-02-29T01:25:30.733Z,1010.18
2024-02-29T01:27:30.734Z,1010.16
2024-02-29T01:30:30.721Z,1010.17
2024-02-29T01:31:30.670Z,1010.17
2024-02-29T01:32:32.447Z,1010.16
2024-02-29T01:33:30.736Z,1010.08
2024-02-29T01:34:30.640Z,1010.12
2024-02-29T01:35:30.625Z,1010.11
2024-02-29T01:36:30.643Z,1010.06
2024-02-29T01:37:30.601Z,1010.10
2024-02-29T01:38:30.596Z,1010.04
2024-02-29T01:39:30.610Z,1010.08
2024-02-29T01:41:30.569Z,1009.99
2024-02-29T01:42:30.573Z,1010.02
2024-02-29T01:43:30.601Z,1010.00
2024-02-29T01:44:30.533Z,1009.91
2024-02-29T01:45:30.515Z,1009.92
2024-02-29T01:46:30.505Z,1009.91
2024-02-29T01:47:30.488Z,1009.88
2024-02-29T01:48:30.564Z,1009.89
2024-02-29T01:49:30.474Z,1009.88
2024-02-29T01:50:30.467Z,1009.86
2024-02-29T01:51:30.480Z,1009.78
2024-02-29T01:53:30.429Z,1009.88
2024-02-29T01:54:30.474Z,1009.80
2024-02-29T01:55:30.405Z,1009.81
2024-02-29T01:56:30.398Z,1009.80
2024-02-29T01:57:30.398Z,1009.72
2024-02-29T01:58:30.369Z,1009.74
2024-02-29T01:59:30.371Z,1009.77
2024-02-29T02:00:30.395Z,1009.71
2024-02-29T02:01:30.470Z,1009.66
2024-02-29T02:02:30.363Z,1009.63
2024-02-29T02:03:30.362Z,1009.60
2024-02-29T02:04:30.306Z,1009.60
2024-02-29T02:05:30.307Z,1009.55
2024-02-29T02:06:30.309Z,1009.55
2024-02-29T02:07:30.289Z,1009.56
2024-02-29T02:08:30.267Z,1009.57
2024-02-29T02:09:30.315Z,1009.52
2024-02-29T02:10:30.260Z,1009.54
2024-02-29T02:11:30.303Z,1009.54
2024-02-29T02:12:30.303Z,1009.63
2024-02-29T02:13:30.228Z,1009.62
2024-02-29T02:14:30.211Z,1009.66
2024-02-29T02:15:30.208Z,1009.65
2024-02-29T02:17:30.203Z,1009.61
2024-02-29T02:18:30.208Z,1009.59
2024-02-29T02:19:30.150Z,1009.57
2024-02-29T02:20:30.139Z,1009.56
2024-02-29T02:21:30.153Z,1009.59
2024-02-29T02:22:30.267Z,1009.53
2024-02-29T02:23:30.100Z,1009.48
2024-02-29T02:24:30.116Z,1009.51
2024-02-29T02:25:30.095Z,1009.44
2024-02-29T02:26:30.069Z,1009.44
2024-02-29T02:27:30.083Z,1009.42
2024-02-29T02:28:30.048Z,1009.43
2024-02-29T02:29:30.045Z,1009.40
2024-02-29T02:30:30.050Z,1009.39
2024-02-29T02:31:30.021Z,1009.39
2024-02-29T02:32:30.026Z,1009.35
2024-02-29T02:33:30.026Z,1009.36
2024-02-29T02:34:29.991Z,1009.37
2024-02-29T02:35:29.971Z,1009.34
2024-02-29T02:36:29.987Z,1009.33
2024-02-29T02:37:29.954Z,1009.31
2024-02-29T02:38:29.959Z,1009.28
2024-02-29T02:39:30.023Z,1009.29
2024-02-29T02:40:29.930Z,1009.24
2024-02-29T02:41:29.914Z,1009.23
2024-02-29T02:42:29.919Z,1009.25
2024-02-29T02:43:29.907Z,1009.26
2024-02-29T02:44:29.909Z,1009.25
2024-02-29T02:45:29.936Z,1009.15
2024-02-29T02:46:29.856Z,1009.17
2024-02-29T02:47:29.874Z,1009.10
2024-02-29T02:49:29.819Z,1009.12
2024-02-29T02:50:29.857Z,1009.07
2024-02-29T02:51:29.920Z,1009.14
2024-02-29T02:52:29.798Z,1009.10
2024-02-29T02:53:29.789Z,1009.12
2024-02-29T02:54:29.829Z,1009.11
2024-02-29T02:55:29.765Z,1009.11
2024-02-29T02:56:29.758Z,1009.07
2024-02-29T02:57:29.855Z,1009.05
2024-02-29T02:58:29.728Z,1009.05
2024-02-29T02:59:29.714Z,1009.01
2024-02-29T03:00:29.722Z,1009.06
2024-02-29T03:01:29.729Z,1009.04
2024-02-29T03:02:29.692Z,1009.02
2024-02-29T03:03:29.684Z,1009.03
2024-02-29T03:04:29.671Z,1009.01
2024-02-29T03:05:29.650Z,1009.00
2024-02-29T03:06:29.691Z,1008.99
2024-02-29T03:07:29.634Z,1008.95
2024-02-29T03:08:29.650Z,1008.97
2024-02-29T03:09:29.620Z,1008.94
2024-02-29T03:10:29.596Z,1008.96
2024-02-29T03:11:29.645Z,1008.94
2024-02-29T03:12:29.576Z,1008.91
2024-02-29T03:13:29.570Z,1008.94
2024-02-29T03:14:29.560Z,1008.95
2024-02-29T03:15:29.551Z,1008.89
2024-02-29T03:16:29.534Z,1008.90
2024-02-29T03:17:29.563Z,1008.92
2024-02-29T03:18:29.568Z,1008.87
2024-02-29T03:19:29.499Z,1008.82
2024-02-29T03:20:29.494Z,1008.79
2024-02-29T03:21:29.555Z,1008.78
2024-02-29T03:22:29.481Z,1008.76
2024-02-29T03:23:29.473Z,1008.66
2024-02-29T03:24:29.453Z,1008.69
2024-02-29T03:25:29.433Z,1008.70
2024-02-29T03:26:29.427Z,1008.71
2024-02-29T03:27:29.417Z,1008.67
2024-02-29T03:28:29.409Z,1008.67
2024-02-29T03:29:29.399Z,1008.69
2024-02-29T03:30:29.384Z,1008.63
2024-02-29T03:31:29.373Z,1008.64
2024-02-29T03:32:29.409Z,1008.67
2024-02-29T03:33:29.349Z,1008.64
2024-02-29T03:34:29.352Z,1008.59
2024-02-29T03:35:29.323Z,1008.61
2024-02-29T03:36:29.335Z,1008.53
2024-02-29T03:37:29.303Z,1008.53
2024-02-29T03:38:29.302Z,1008.58
2024-02-29T03:39:29.291Z,1008.49
2024-02-29T03:40:29.434Z,1008.48
2024-02-29T03:41:29.266Z,1008.50
2024-02-29T03:42:29.255Z,1008.48
2024-02-29T03:43:29.252Z,1008.44
2024-02-29T03:44:29.225Z,1008.43
2024-02-29T03:45:29.226Z,1008.39
2024-02-29T03:46:29.214Z,1008.35
2024-02-29T03:47:29.216Z,1008.33
2024-02-29T03:48:29.186Z,1008.33
2024-02-29T03:49:29.170Z,1008.27
2024-02-29T03:50:29.165Z,1008.30
2024-02-29T03:51:29.155Z,1008.29
2024-02-29T03:52:29.143Z,1008.34
2024-02-29T03:53:29.127Z,1008.25
2024-02-29T03:54:29.119Z,1008.25
2024-02-29T03:55:29.133Z,1008.28
2024-02-29T03:56:29.108Z,1008.25
2024-02-29T03:57:29.085Z,1008.19
2024-02-29T03:58:29.096Z,1008.24
2024-02-29T03:59:29.061Z,1008.22
2024-02-29T04:00:29.065Z,1008.19
2024-02-29T04:01:29.105Z,1008.22
2024-02-29T04:02:29.040Z,1008.21
2024-02-29T04:03:29.019Z,1008.19
2024-02-29T04:04:29.012Z,1008.20
2024-02-29T04:05:28.994Z,1008.19
2024-02-29T04:06:28.982Z,1008.18
2024-02-29T04:07:28.987Z,1008.20
2024-02-29T04:08:28.967Z,1008.19
2024-02-29T04:09:28.952Z,1008.11
2024-02-29T04:10:28.943Z,1008.18
2024-02-29T04:11:28.964Z,1008.16
2024-02-29T04:12:28.943Z,1008.10
2024-02-29T04:13:28.913Z,1008.16
2024-02-29T04:14:28.914Z,1008.11
2024-02-29T04:15:28.887Z,1008.10
2024-02-29T04:16:28.928Z,1008.10
2024-02-29T04:17:28.902Z,1008.10
2024-02-29T04:18:28.853Z,1008.09
2024-02-29T04:19:28.844Z,1008.03
2024-02-29T04:20:28.835Z,1008.07
2024-02-29T04:21:28.821Z,1007.97
2024-02-29T04:22:28.810Z,1008.06
2024-02-29T04:23:28.809Z,1008.00
2024-02-29T04:24:28.795Z,1007.98
2024-02-29T04:25:28.777Z,1007.99
2024-02-29T04:26:28.766Z,1007.94
2024-02-29T04:27:28.755Z,1007.96
2024-02-29T04:28:28.742Z,1008.00
2024-02-29T04:29:28.735Z,1007.89
2024-02-29T04:30:28.738Z,1007.94
2024-02-29T04:31:28.716Z,1008.01
2024-02-29T04:32:28.706Z,1007.93
2024-02-29T04:33:28.697Z,1007.96
2024-02-29T04:34:28.808Z,1007.89
2024-02-29T04:35:28.704Z,1007.91
2024-02-29T04:36:28.666Z,1007.88
2024-02-29T04:37:28.648Z,1007.87
2024-02-29T04:38:28.641Z,1007.88
2024-02-29T04:39:28.629Z,1007.92
2024-02-29T04:40:28.660Z,1007.92
2024-02-29T04:41:28.604Z,1007.83
2024-02-29T04:42:28.615Z,1007.85
2024-02-29T04:43:28.591Z,1007.81
2024-02-29T04:44:28.588Z,1007.80
2024-02-29T04:45:28.561Z,1007.79
2024-02-29T04:46:28.556Z,1007.82
2024-02-29T04:47:28.576Z,1007.77
2024-02-29T04:48:28.537Z,1007.82
2024-02-29T04:49:28.517Z,1007.82
2024-02-29T04:50:28.515Z,1007.82
2024-02-29T04:51:28.522Z,1007.91
2024-02-29T04:52:28.490Z,1007.84
2024-02-29T04:53:28.476Z,1007.86
2024-02-29T04:54:28.466Z,1007.87
2024-02-29T04:55:28.452Z,1007.95
2024-02-29T04:56:28.441Z,1007.88
2024-02-29T04:57:28.436Z,1007.86
2024-02-29T04:58:28.457Z,1007.86
2024-02-29T04:59:28.409Z,1007.87
2024-02-29T05:00:28.403Z,1007.84
2024-02-29T05:01:28.483Z,1007.84
2024-02-29T05:02:28.374Z,1007.83
2024-02-29T05:03:28.370Z,1007.81
2024-02-29T05:04:28.364Z,1007.76
2024-02-29T05:05:28.345Z,1007.83
2024-02-29T05:06:28.332Z,1007.78
2024-02-29T05:07:28.333Z,1007.77
2024-02-29T05:08:28.313Z,1007.74
2024-02-29T05:09:28.298Z,1007.75
2024-02-29T05:10:28.340Z,1007.66
2024-02-29T05:11:28.306Z,1007.74
2024-02-29T05:12:28.271Z,1007.77
2024-02-29T05:13:28.265Z,1007.73
2024-02-29T05:14:28.260Z,1007.71
2024-02-29T05:15:28.240Z,1007.73
2024-02-29T05:16:28.229Z,1007.69
2024-02-29T05:17:28.263Z,1007.67
2024-02-29T05:18:28.209Z,1007.65
2024-02-29T05:19:28.202Z,1007.65
2024-02-29T05:20:28.193Z,1007.69
2024-02-29T05:21:28.184Z,1007.62
2024-02-29T05:22:28.155Z,1007.65
2024-02-29T05:23:28.153Z,1007.67
2024-02-29T05:24:28.149Z,1007.66
2024-02-29T05:25:28.127Z,1007.55
2024-02-29T05:26:28.122Z,1007.60
2024-02-29T05:27:28.115Z,1007.58
2024-02-29T05:28:28.107Z,1007.59
2024-02-29T05:29:28.089Z,1007.52
2024-02-29T05:30:28.078Z,1007.56
2024-02-29T05:31:28.068Z,1007.57
2024-02-29T05:32:28.092Z,1007.54
2024-02-29T05:33:28.040Z,1007.50
2024-02-29T05:34:28.029Z,1007.50
2024-02-29T05:35:28.028Z,1007.45
2024-02-29T05:36:28.018Z,1007.47
2024-02-29T05:37:28.119Z,1007.45
2024-02-29T05:38:27.991Z,1007.45
2024-02-29T05:39:27.983Z,1007.38
2024-02-29T05:40:28.216Z,1007.39
2024-02-29T05:41:27.961Z,1007.41
2024-02-29T05:42:27.953Z,1007.39
2024-02-29T05:43:27.934Z,1007.37
2024-02-29T05:44:27.928Z,1007.36
2024-02-29T05:45:27.915Z,1007.33
2024-02-29T05:46:27.900Z,1007.38
2024-02-29T05:47:27.928Z,1007.38
2024-02-29T05:48:27.923Z,1007.35
2024-02-29T05:49:27.908Z,1007.38
2024-02-29T05:50:29.920Z,1007.36
2024-02-29T05:51:27.874Z,1007.35
2024-02-29T05:52:27.836Z,1007.39
2024-02-29T05:53:27.826Z,1007.36
2024-02-29T05:54:27.819Z,1007.39
2024-02-29T05:55:27.805Z,1007.35
2024-02-29T05:56:27.794Z,1007.37
2024-02-29T05:57:27.876Z,1007.37
2024-02-29T05:58:27.775Z,1007.36
2024-02-29T05:59:27.760Z,1007.31
2024-02-29T06:00:27.761Z,1007.38
2024-02-29T06:01:27.847Z,1007.36
2024-02-29T06:02:27.736Z,1007.31
2024-02-29T06:03:27.737Z,1007.31
2024-02-29T06:04:27.775Z,1007.36
2024-02-29T06:05:27.699Z,1007.37
2024-02-29T06:06:27.687Z,1007.33
2024-02-29T06:07:27.686Z,1007.33
2024-02-29T06:08:27.681Z,1007.32
2024-02-29T06:09:27.663Z,1007.35
2024-02-29T06:10:27.729Z,1007.29
2024-02-29T06:11:27.672Z,1007.34
2024-02-29T06:12:27.647Z,1007.27
2024-02-29T06:13:27.609Z,1007.24
2024-02-29T06:14:27.651Z,1007.26
2024-02-29T06:15:27.610Z,1007.25
2024-02-29T06:16:27.593Z,1007.27
2024-02-29T06:17:27.608Z,1007.27
2024-02-29T06:18:27.561Z,1007.31
2024-02-29T06:19:27.556Z,1007.26
2024-02-29T06:20:27.538Z,1007.28
2024-02-29T06:21:27.528Z,1007.27
2024-02-29T06:22:27.551Z,1007.24
2024-02-29T06:23:27.504Z,1007.24
2024-02-29T06:24:27.496Z,1007.21
2024-02-29T06:25:27.543Z,1007.16
2024-02-29T06:26:27.485Z,1007.26
2024-02-29T06:27:27.462Z,1007.27
2024-02-29T06:28:27.482Z,1007.22
2024-02-29T06:29:27.445Z,1007.22
2024-02-29T06:30:27.433Z,1007.15
2024-02-29T06:31:27.472Z,1007.17
2024-02-29T06:32:27.414Z,1007.17
2024-02-29T06:33:27.401Z,1007.17
2024-02-29T06:34:27.455Z,1007.17
2024-02-29T06:35:27.393Z,1007.16
2024-02-29T06:36:27.398Z,1007.15
2024-02-29T06:37:27.361Z,1007.16
2024-02-29T06:38:27.393Z,1007.13
2024-02-29T06:39:27.370Z,1007.17
2024-02-29T06:40:27.556Z,1007.15
2024-02-29T06:41:27.308Z,1007.11
2024-02-29T06:42:27.297Z,1007.14
2024-02-29T06:43:28.673Z,1007.09
2024-02-29T06:44:27.282Z,1007.15
2024-02-29T06:45:27.306Z,1007.11
2024-02-29T06:46:27.266Z,1007.08
2024-02-29T06:47:27.295Z,1007.10
2024-02-29T06:48:27.313Z,1007.05
2024-02-29T06:49:27.237Z,1007.05
2024-02-29T06:50:27.210Z,1007.02
2024-02-29T06:51:27.335Z,1007.01
2024-02-29T06:52:27.427Z,1007.07
2024-02-29T06:53:27.211Z,1007.09
2024-02-29T06:54:27.265Z,1007.02
2024-02-29T06:55:27.324Z,1006.97
2024-02-29T06:56:27.201Z,1006.96
2024-02-29T06:57:27.206Z,1006.92
2024-02-29T06:58:27.315Z,1006.97
2024-02-29T06:59:27.139Z,1006.96
2024-02-29T07:00:27.105Z,1006.95
2024-02-29T07:01:27.258Z,1006.94
2024-02-29T07:02:27.117Z,1006.91
2024-02-29T07:03:27.164Z,1006.94
2024-02-29T07:04:27.093Z,1006.93
2024-02-29T07:05:27.075Z,1006.94
2024-02-29T07:06:27.045Z,1006.90
2024-02-29T07:07:27.030Z,1006.91
2024-02-29T07:08:27.023Z,1006.89
2024-02-29T07:09:27.006Z,1006.88
2024-02-29T07:10:27.080Z,1006.89
2024-02-29T07:11:27.053Z,1006.90
2024-02-29T07:12:26.990Z,1006.85
2024-02-29T07:13:26.983Z,1006.91
2024-02-29T07:14:26.961Z,1006.88
2024-02-29T07:15:26.948Z,1006.87
2024-02-29T07:16:27.065Z,1006.91
2024-02-29T07:17:26.947Z,1006.88
2024-02-29T07:18:26.912Z,1006.83
2024-02-29T07:19:26.931Z,1006.85
2024-02-29T07:20:28.816Z,1006.79
2024-02-29T07:21:26.887Z,1006.83
2024-02-29T07:22:26.985Z,1006.79
2024-02-29T07:23:26.853Z,1006.78
2024-02-29T07:24:26.892Z,1006.76
2024-02-29T07:25:26.879Z,1006.74
2024-02-29T07:26:26.824Z,1006.74
2024-02-29T07:27:26.866Z,1006.72
2024-02-29T07:28:26.797Z,1006.76
2024-02-29T07:29:26.794Z,1006.77
2024-02-29T07:30:26.809Z,1006.70
2024-02-29T07:31:26.865Z,1006.77
2024-02-29T07:32:26.782Z,1006.76
2024-02-29T07:33:26.750Z,1006.66
2024-02-29T07:34:26.773Z,1006.74
2024-02-29T07:35:26.736Z,1006.69
2024-02-29T07:36:26.723Z,1006.65
2024-02-29T07:37:26.775Z,1006.67
2024-02-29T07:38:26.721Z,1006.69
2024-02-29T07:39:26.683Z,1006.70
2024-02-29T07:40:26.732Z,1006.71
2024-02-29T07:41:26.689Z,1006.69
2024-02-29T07:42:26.679Z,1006.67
2024-02-29T07:43:26.714Z,1006.73
2024-02-29T07:44:26.647Z,1006.68
2024-02-29T07:45:26.616Z,1006.67
2024-02-29T07:46:26.629Z,1006.64
2024-02-29T07:47:26.690Z,1006.74
2024-02-29T07:48:26.610Z,1006.69
2024-02-29T07:49:26.579Z,1006.71
2024-02-29T07:50:26.574Z,1006.71
2024-02-29T07:51:26.555Z,1006.71
2024-02-29T07:52:26.623Z,1006.65
2024-02-29T07:53:26.551Z,1006.59
2024-02-29T07:54:26.536Z,1006.61
2024-02-29T07:55:26.553Z,1006.62
2024-02-29T07:56:28.739Z,1006.65
2024-02-29T07:57:26.491Z,1006.60
2024-02-29T07:58:26.509Z,1006.61
2024-02-29T07:59:26.481Z,1006.61
2024-02-29T08:00:26.494Z,1006.58
2024-02-29T08:01:26.558Z,1006.56
2024-02-29T08:02:26.437Z,1006.48
2024-02-29T08:03:26.420Z,1006.49
2024-02-29T08:04:26.438Z,1006.49
2024-02-29T08:05:26.443Z,1006.42
2024-02-29T08:06:26.645Z,1006.47
2024-02-29T08:07:26.485Z,1006.47
2024-02-29T08:08:26.372Z,1006.43
2024-02-29T08:09:26.359Z,1006.45
2024-02-29T08:10:26.388Z,1006.47
2024-02-29T08:11:26.373Z,1006.44
2024-02-29T08:12:26.325Z,1006.43
2024-02-29T08:13:26.371Z,1006.45
2024-02-29T08:14:26.329Z,1006.42
2024-02-29T08:15:26.316Z,1006.33
2024-02-29T08:16:26.348Z,1006.39
2024-02-29T08:17:26.337Z,1006.35
2024-02-29T08:18:26.272Z,1006.34
2024-02-29T08:19:26.291Z,1006.36
2024-02-29T08:20:26.261Z,1006.32
2024-02-29T08:21:26.219Z,1006.32
2024-02-29T08:22:26.347Z,1006.32
2024-02-29T08:23:26.200Z,1006.28
2024-02-29T08:24:26.279Z,1006.31
2024-02-29T08:25:26.206Z,1006.22
2024-02-29T08:26:26.175Z,1006.25
2024-02-29T08:27:26.164Z,1006.23
2024-02-29T08:28:26.199Z,1006.23
2024-02-29T08:29:26.134Z,1006.16
2024-02-29T08:30:26.156Z,1006.17
2024-02-29T08:31:26.189Z,1006.13
2024-02-29T08:32:26.183Z,1006.05
2024-02-29T08:33:26.118Z,1006.04
2024-02-29T08:34:26.113Z,1006.06
2024-02-29T08:35:26.091Z,1006.03
2024-02-29T08:36:26.086Z,1006.02
2024-02-29T08:37:26.082Z,1006.00
2024-02-29T08:38:30.505Z,1006.01
2024-02-29T08:39:26.032Z,1006.02
2024-02-29T08:40:26.069Z,1005.97
2024-02-29T08:41:26.045Z,1005.96
2024-02-29T08:42:25.998Z,1005.96
2024-02-29T08:43:26.065Z,1005.95
2024-02-29T08:44:25.976Z,1005.91
2024-02-29T08:45:25.972Z,1005.96
2024-02-29T08:46:26.053Z,1005.87
2024-02-29T08:47:25.966Z,1005.92
2024-02-29T08:48:25.952Z,1005.90
2024-02-29T08:49:25.983Z,1005.91
2024-02-29T08:50:25.923Z,1005.88
2024-02-29T08:51:25.919Z,1005.88
2024-02-29T08:52:25.977Z,1005.85
2024-02-29T08:53:25.886Z,1005.83
2024-02-29T08:54:25.880Z,1005.85
2024-02-29T08:55:25.968Z,1005.86
2024-02-29T08:56:25.849Z,1005.88
2024-02-29T08:57:25.830Z,1005.78
2024-02-29T08:58:25.864Z,1005.81
2024-02-29T08:59:25.814Z,1005.82
2024-02-29T09:00:25.819Z,1005.83
2024-02-29T09:01:25.867Z,1005.79
2024-02-29T09:02:25.806Z,1005.76
2024-02-29T09:03:25.793Z,1005.81
2024-02-29T09:04:25.805Z,1005.78
2024-02-29T09:05:25.835Z,1005.80
2024-02-29T09:06:28.173Z,1005.79
2024-02-29T09:07:25.783Z,1005.83
2024-02-29T09:08:25.709Z,1005.79
2024-02-29T09:09:25.703Z,1005.74
2024-02-29T09:10:25.928Z,1005.71
2024-02-29T09:11:25.719Z,1005.74
2024-02-29T09:12:25.671Z,1005.66
2024-02-29T09:13:30.839Z,1005.68
2024-02-29T09:14:25.683Z,1005.70
2024-02-29T09:15:25.731Z,1005.71
2024-02-29T09:16:25.747Z,1005.66
2024-02-29T09:17:25.627Z,1005.65
2024-02-29T09:18:25.612Z,1005.65
2024-02-29T09:19:25.855Z,1005.61
2024-02-29T09:20:25.588Z,1005.58
2024-02-29T09:21:25.584Z,1005.63
2024-02-29T09:22:25.609Z,1005.60
2024-02-29T09:23:25.567Z,1005.53
2024-02-29T09:24:25.545Z,1005.59
2024-02-29T09:25:25.724Z,1005.58
2024-02-29T09:26:25.529Z,1005.65
2024-02-29T09:27:25.525Z,1005.58
2024-02-29T09:28:25.570Z,1005.51
2024-02-29T09:29:27.293Z,1005.54
2024-02-29T09:30:25.478Z,1005.56
2024-02-29T09:31:25.608Z,1005.58
2024-02-29T09:32:25.455Z,1005.50
2024-02-29T09:33:25.466Z,1005.51
2024-02-29T09:34:25.513Z,1005.48
2024-02-29T09:35:25.427Z,1005.44
2024-02-29T09:36:25.414Z,1005.48
2024-02-29T09:37:25.474Z,1005.46
2024-02-29T09:38:25.409Z,1005.48
2024-02-29T09:39:25.471Z,1005.46
2024-02-29T09:40:27.081Z,1005.48
2024-02-29T09:41:40.933Z,1005.49
2024-02-29T09:42:25.360Z,1005.42
2024-02-29T09:43:25.331Z,1005.44
2024-02-29T09:44:25.328Z,1005.45
2024-02-29T09:45:25.886Z,1005.41
2024-02-29T09:46:25.349Z,1005.42
2024-02-29T09:47:25.315Z,1005.38
2024-02-29T09:48:25.290Z,1005.42
2024-02-29T09:49:25.274Z,1005.38
2024-02-29T09:50:25.258Z,1005.38
2024-02-29T09:51:25.311Z,1005.34
2024-02-29T09:52:25.343Z,1005.34
2024-02-29T09:53:25.421Z,1005.26
2024-02-29T09:54:25.217Z,1005.32
2024-02-29T09:55:25.260Z,1005.29
2024-02-29T09:56:25.254Z,1005.25
2024-02-29T09:57:25.193Z,1005.18
2024-02-29T09:58:25.204Z,1005.15
2024-02-29T09:59:25.176Z,1005.17
2024-02-29T10:00:25.155Z,1005.20
2024-02-29T10:01:25.220Z,1005.15
2024-02-29T10:02:25.140Z,1005.13
2024-02-29T10:03:25.124Z,1005.13
2024-02-29T10:04:25.163Z,1005.13
2024-02-29T10:05:25.123Z,1005.12
2024-02-29T10:06:25.100Z,1005.13
2024-02-29T10:07:25.155Z,1005.10
2024-02-29T10:08:25.079Z,1005.11
2024-02-29T10:09:25.067Z,1005.15
2024-02-29T10:10:25.175Z,1005.13
2024-02-29T10:11:25.107Z,1005.10
2024-02-29T10:12:25.068Z,1005.15
2024-02-29T10:13:25.178Z,1005.16
2024-02-29T10:14:25.036Z,1005.06
2024-02-29T10:15:25.010Z,1005.04
2024-02-29T10:16:27.032Z,1004.96
2024-02-29T10:17:25.095Z,1004.92
2024-02-29T10:18:24.957Z,1004.97
2024-02-29T10:19:25.075Z,1004.90
2024-02-29T10:20:24.938Z,1004.92
2024-02-29T10:21:24.941Z,1004.96
2024-02-29T10:22:24.954Z,1004.89
2024-02-29T10:23:24.940Z,1004.91
2024-02-29T10:24:25.060Z,1004.90
2024-02-29T10:25:24.990Z,1004.94
2024-02-29T10:26:24.867Z,1004.89
2024-02-29T10:27:24.866Z,1004.85
2024-02-29T10:28:24.899Z,1004.92
2024-02-29T10:29:26.920Z,1004.89
2024-02-29T10:30:24.840Z,1004.94
2024-02-29T10:31:24.847Z,1004.90
2024-02-29T10:32:24.811Z,1004.88
2024-02-29T10:33:24.904Z,1004.81
2024-02-29T10:34:24.933Z,1004.82
2024-02-29T10:35:24.808Z,1004.78
2024-02-29T10:36:24.808Z,1004.80
2024-02-29T10:37:24.807Z,1004.76
2024-02-29T10:38:24.745Z,1004.76
2024-02-29T10:39:24.723Z,1004.76
2024-02-29T10:40:24.764Z,1004.77
2024-02-29T10:41:24.711Z,1004.74
2024-02-29T10:42:24.699Z,1004.79
2024-02-29T10:43:24.693Z,1004.76
2024-02-29T10:44:24.677Z,1004.74
2024-02-29T10:45:26.694Z,1004.73
2024-02-29T10:46:24.707Z,1004.64
2024-02-29T10:47:24.828Z,1004.69
2024-02-29T10:48:24.632Z,1004.72
2024-02-29T10:49:24.668Z,1004.61
2024-02-29T10:50:24.606Z,1004.62
2024-02-29T10:51:27.085Z,1004.60
2024-02-29T10:52:24.688Z,1004.61
2024-02-29T10:53:24.600Z,1004.59
2024-02-29T10:54:24.561Z,1004.64
2024-02-29T10:55:24.671Z,1004.61
2024-02-29T10:56:24.532Z,1004.59
2024-02-29T10:57:24.521Z,1004.53
2024-02-29T10:58:24.580Z,1004.56
2024-02-29T10:59:24.506Z,1004.50
2024-02-29T11:00:24.500Z,1004.48
2024-02-29T11:01:24.619Z,1004.57
2024-02-29T11:02:24.505Z,1004.54
2024-02-29T11:03:24.467Z,1004.55
2024-02-29T11:04:24.534Z,1004.54
2024-02-29T11:05:24.541Z,1004.47
2024-02-29T11:06:24.438Z,1004.52
2024-02-29T11:07:24.470Z,1004.41
2024-02-29T11:08:24.403Z,1004.45
2024-02-29T11:09:27.466Z,1004.44
2024-02-29T11:10:24.485Z,1004.45
2024-02-29T11:11:24.431Z,1004.48
2024-02-29T11:12:24.361Z,1004.40
2024-02-29T11:13:24.425Z,1004.47
2024-02-29T11:14:24.353Z,1004.45
2024-02-29T11:15:25.070Z,1004.43
2024-02-29T11:16:24.392Z,1004.48
2024-02-29T11:17:24.421Z,1004.43
2024-02-29T11:18:24.311Z,1004.38
2024-02-29T11:19:24.395Z,1004.30
2024-02-29T11:20:24.279Z,1004.26
2024-02-29T11:21:24.302Z,1004.29
2024-02-29T11:22:24.301Z,1004.24
2024-02-29T11:23:24.233Z,1004.27
2024-02-29T11:24:24.407Z,1004.23
2024-02-29T11:25:24.304Z,1004.24
2024-02-29T11:26:24.208Z,1004.17
2024-02-29T11:27:24.199Z,1004.19
2024-02-29T11:28:24.343Z,1004.15
2024-02-29T11:29:24.196Z,1004.10
2024-02-29T11:30:24.182Z,1004.08
2024-02-29T11:31:24.244Z,1004.05
2024-02-29T11:32:24.163Z,1004.05
2024-02-29T11:33:24.305Z,1003.98
2024-02-29T11:34:24.278Z,1003.96
2024-02-29T11:35:24.151Z,1003.95
2024-02-29T11:36:24.127Z,1003.88
2024-02-29T11:37:27.084Z,1003.83
2024-02-29T11:38:29.282Z,1003.82
2024-02-29T11:39:24.081Z,1003.82
2024-02-29T11:40:24.203Z,1003.78
2024-02-29T11:41:24.117Z,1003.78
2024-02-29T11:42:24.114Z,1003.76
2024-02-29T11:43:26.111Z,1003.67
2024-02-29T11:44:24.019Z,1003.71
2024-02-29T11:45:24.079Z,1003.67
2024-02-29T11:46:24.012Z,1003.63
2024-02-29T11:47:23.987Z,1003.58
2024-02-29T11:48:23.972Z,1003.55
2024-02-29T11:49:24.126Z,1003.55
2024-02-29T11:50:23.952Z,1003.49
2024-02-29T11:51:23.925Z,1003.50
2024-02-29T11:52:23.988Z,1003.47
2024-02-29T11:53:23.907Z,1003.47
2024-02-29T11:54:26.826Z,1003.43
2024-02-29T11:55:24.035Z,1003.43
2024-02-29T11:56:23.883Z,1003.39
2024-02-29T11:57:23.889Z,1003.40
2024-02-29T11:58:23.936Z,1003.39
2024-02-29T11:59:23.845Z,1003.38
2024-02-29T12:00:23.844Z,1003.38
2024-02-29T12:01:23.896Z,1003.38
2024-02-29T12:02:23.826Z,1003.31
2024-02-29T12:03:23.800Z,1003.26
2024-02-29T12:04:23.892Z,1003.24
2024-02-29T12:05:23.780Z,1003.20
2024-02-29T12:06:23.787Z,1003.20
2024-02-29T12:07:23.828Z,1003.18
2024-02-29T12:08:23.767Z,1003.17
2024-02-29T12:09:23.734Z,1003.08
2024-02-29T12:10:23.846Z,1003.08
2024-02-29T12:11:23.792Z,1003.05
2024-02-29T12:12:23.740Z,1003.00
2024-02-29T12:13:23.783Z,1003.03
2024-02-29T12:14:23.740Z,1002.97
2024-02-29T12:15:23.669Z,1002.97
2024-02-29T12:16:23.749Z,1003.01
2024-02-29T12:17:23.661Z,1002.97
2024-02-29T12:18:23.648Z,1002.96
2024-02-29T12:19:23.650Z,1002.88
2024-02-29T12:20:23.643Z,1002.88
2024-02-29T12:21:23.617Z,1002.82
2024-02-29T12:22:23.679Z,1002.82
2024-02-29T12:23:23.588Z,1002.84
2024-02-29T12:24:23.743Z,1002.82
2024-02-29T12:25:23.636Z,1002.84